This is the latest recevied weather packets stored in our database for station/object E22ZMG-2. If no packets are shown the sender has not sent any weather packets the latest 10 day(s).
| Time | Temp. | Humidity | Pressure | Rain* | Wind** | Luminosity | Snow |
|---|---|---|---|---|---|---|---|
| 1778081133 | 28.89° C | 68% | 926 hPa | - | - | 0 W/m² | - |
| 1778080509 | 29.44° C | 67% | 926 hPa | - | - | 0 W/m² | - |
| 1778079884 | 28.89° C | 67% | 926 hPa | - | - | 0 W/m² | - |
| 1778079261 | 29.44° C | 67% | 926 hPa | - | - | 0 W/m² | - |
| 1778078636 | 29.44° C | 66% | 926 hPa | - | - | 0 W/m² | - |
| 1778078012 | 29.44° C | 68% | 926 hPa | - | - | 0 W/m² | - |
| 1778077388 | 29.44° C | 66% | 926 hPa | - | - | 0 W/m² | - |
| 1778076764 | 29.44° C | 66% | 925 hPa | - | - | 0 W/m² | - |
| 1778076140 | 29.44° C | 67% | 925 hPa | - | - | 0 W/m² | - |
| 1778075516 | 30° C | 64% | 925 hPa | - | - | 0 W/m² | - |
| 1778074891 | 30° C | 64% | 925 hPa | - | - | 0 W/m² | - |
| 1778074267 | 30° C | 64% | 925 hPa | - | - | 0 W/m² | - |
| 1778073643 | 30° C | 65% | 924 hPa | - | - | 0 W/m² | - |
| 1778073019 | 30° C | 64% | 924 hPa | - | - | 0 W/m² | - |
| 1778072395 | 29.44° C | 67% | 924 hPa | - | - | 0 W/m² | - |
| 1778071771 | 30.56° C | 65% | 924 hPa | - | - | 0 W/m² | - |
| 1778071147 | 30° C | 65% | 924 hPa | - | - | 0 W/m² | - |
| 1778070523 | 30.56° C | 63% | 924 hPa | - | - | 0 W/m² | - |
| 1778069899 | 30.56° C | 65% | 924 hPa | - | - | 0 W/m² | - |
| 1778069275 | 30.56° C | 65% | 924 hPa | - | - | 0 W/m² | - |
| 1778068651 | 31.11° C | 65% | 924 hPa | - | - | 0 W/m² | - |
| 1778068027 | 30.56° C | 65% | 924 hPa | - | - | 0 W/m² | - |
| 1778067403 | 31.11° C | 65% | 923 hPa | - | - | 0 W/m² | - |
| 1778066721 | 31.11° C | 65% | 923 hPa | - | - | 0 W/m² | - |
| 1778066377 | 31.11° C | 64% | 923 hPa | - | - | 0 W/m² | - |
* Rain since midnight (hover to see other rain measurements)
** Current wind speed in m/s (hover to see current wind gust speed)